Stella Prima — PHEA — position and weather

sailwx.info

Track history (hours):
 
Tides and Currents Weather Stations Pressure Air Temp Water Temp Dewpoint Dewpoint Depression Visibility Wind Speed Wind Dir Waves Ship Positions

Stella Prima

Last reported at 2018-Apr-12 10:11 UTC. Time now 2018-Apr-22 06:29 UTC.
Position N 49°52' W 004°27'.
Warning: this ship's position is 9 days out of date.

Length 100 m; beam 21 m.

Type: Cargo ship. MMSI: 246460000.

Date/timePositionNaut miles runAvg speedWind from/ knotsBaromVisibWave heightAir tempDewpointWater temp
2018-Apr-12 10:11N 49°52' W 004°27'713.5
2018-Apr-12 09:41N 49°53' W 004°16'2013.7
2018-Apr-12 08:15N 49°56' W 003°46'313.4
2018-Apr-12 08:00N 49°56' W 003°41'713.3
2018-Apr-12 07:30N 49°57' W 003°31'613.0
2018-Apr-12 07:01N 49°58' W 003°21'612.7
2018-Apr-12 06:30N 49°58' W 003°11'612.4
2018-Apr-12 06:00N 49°59' W 003°01'612.0
2018-Apr-12 05:30N 50°01' W 002°52'611.8
2018-Apr-12 05:00N 50°02' W 002°43'611.7
2018-Apr-12 04:30N 50°04' W 002°35'1811.9
2018-Apr-12 03:00N 50°09' W 002°08'612.5
2018-Apr-12 02:29N 50°11' W 001°59'713.0
2018-Apr-12 01:56N 50°13' W 001°48'613.5
2018-Apr-12 01:29N 50°14' W 001°39'714.1
2018-Apr-12 01:01N 50°16' W 001°28'714.4
2018-Apr-12 00:30N 50°18' W 001°17'1015.0
2018-Apr-11 23:52N 50°21' W 001°03'615.3
2018-Apr-11 23:30N 50°22' W 000°54'714.8
2018-Apr-11 23:01N 50°24' W 000°43'714.4
2018-Apr-11 22:31N 50°26' W 000°33'714.1
2018-Apr-11 22:00N 50°27' W 000°22'713.6
2018-Apr-11 21:30N 50°29' W 000°12'713.2
2018-Apr-11 20:59N 50°31' W 000°01'612.9
2018-Apr-11 20:30N 50°32' E 000°09'612.5
2018-Apr-11 20:00N 50°33' E 000°18'612.3
2018-Apr-11 19:30N 50°35' E 000°28'612.1
2018-Apr-11 19:00N 50°39' E 000°35'612.2
2018-Apr-11 18:30N 50°42' E 000°43'612.3
2018-Apr-11 18:00N 50°46' E 000°51'612.9
2018-Apr-11 17:30N 50°50' E 000°59'713.4
2018-Apr-11 16:59N 50°54' E 001°08'713.9
2018-Apr-11 16:30N 50°58' E 001°16'714.6
2018-Apr-11 16:01N 51°03' E 001°25'714.9
2018-Apr-11 15:31N 51°07' E 001°34'714.5
2018-Apr-11 15:01N 51°12' E 001°43'713.9
2018-Apr-11 14:30N 51°18' E 001°49'713.4
2018-Apr-11 14:00N 51°24' E 001°55'612.8
2018-Apr-11 13:31N 51°29' E 002°00'612.5
2018-Apr-11 13:00N 51°34' E 002°07'612.3
2018-Apr-11 12:30N 51°38' E 002°14'612.0
2018-Apr-11 12:00N 51°43' E 002°19'611.7
2018-Apr-11 11:30N 51°47' E 002°26'611.6
2018-Apr-11 10:59N 51°52' E 002°32'8212.6
2018-Apr-11 04:28N 52°44' E 004°16'612.6
2018-Apr-11 04:00N 52°48' E 004°24'612.4
2018-Apr-11 03:30N 52°51' E 004°33'612.0
2018-Apr-11 03:00N 52°55' E 004°40'510.6
2018-Apr-11 02:30N 52°58' E 004°47'1 1.5
2018-Apr-11 01:58N 52°58' E 004°47'0 0.0
2018-Apr-11 01:28N 52°58' E 004°47'0 0.0
2018-Apr-11 00:58N 52°58' E 004°47'0 0.0
2018-Apr-11 00:28N 52°58' E 004°47'0 0.0
2018-Apr-11 00:00N 52°58' E 004°47'0 0.0
2018-Apr-10 23:30N 52°58' E 004°47'0 0.0
2018-Apr-10 23:00N 52°58' E 004°47'0 0.0
2018-Apr-10 22:30N 52°58' E 004°47'0 0.0
2018-Apr-10 22:00N 52°58' E 004°47'0 0.0
2018-Apr-10 21:30N 52°58' E 004°47'0 0.0
2018-Apr-10 21:00N 52°58' E 004°47'0 0.0
2018-Apr-10 20:30N 52°58' E 004°47'0 0.0
2018-Apr-10 20:00N 52°58' E 004°47'0 0.0
2018-Apr-10 19:30N 52°58' E 004°47'0 0.0
2018-Apr-10 19:00N 52°58' E 004°47'0 0.0
2018-Apr-10 18:30N 52°58' E 004°47'0 0.0
2018-Apr-10 18:00N 52°58' E 004°47'0 0.0
2018-Apr-10 17:30N 52°58' E 004°47'0 0.0
2018-Apr-10 17:00N 52°58' E 004°47'0 0.0
2018-Apr-10 16:30N 52°58' E 004°47'0 0.0
2018-Apr-10 16:00N 52°58' E 004°47'0 0.0
2018-Apr-10 15:30N 52°58' E 004°47'0 0.0
2018-Apr-10 15:00N 52°58' E 004°47'0 0.0
2018-Apr-10 14:30N 52°58' E 004°47'0 0.0
2018-Apr-10 14:00N 52°58' E 004°47'0 0.0
2018-Apr-10 13:30N 52°58' E 004°47'0 0.0
2018-Apr-10 13:00N 52°58' E 004°47'0 0.0
2018-Apr-10 12:30N 52°58' E 004°47'0 0.0
2018-Apr-10 12:00N 52°58' E 004°47'0 0.0
2018-Apr-10 11:30N 52°58' E 004°47'0 0.0
2018-Apr-10 11:00N 52°58' E 004°47'0 0.0
2018-Apr-10 10:30N 52°58' E 004°47'0 0.0
2018-Apr-10 10:00N 52°58' E 004°47'0 0.0
2018-Apr-10 09:30N 52°58' E 004°47'0 0.0
2018-Apr-10 09:00N 52°58' E 004°47'0 0.0
2018-Apr-10 08:30N 52°58' E 004°47'0 0.0
2018-Apr-10 08:00N 52°58' E 004°47'0 0.0
2018-Apr-10 07:30N 52°58' E 004°47'0 0.0
2018-Apr-10 07:00N 52°58' E 004°47'0 0.0
2018-Apr-10 06:30N 52°58' E 004°47'0 0.0
2018-Apr-10 06:00N 52°58' E 004°47'0 0.0
2018-Apr-10 05:30N 52°58' E 004°47'0 0.0
2018-Apr-10 05:00N 52°58' E 004°47'0 0.0
2018-Apr-10 04:30N 52°58' E 004°47'0 0.0
2018-Apr-10 04:00N 52°58' E 004°47'0 0.0
2018-Apr-10 03:30N 52°58' E 004°47'0 0.0
2018-Apr-10 03:00N 52°58' E 004°47'0 0.0
2018-Apr-10 02:30N 52°58' E 004°47'0 0.0
2018-Apr-10 02:00N 52°58' E 004°47'0 0.0
2018-Apr-10 01:30N 52°58' E 004°47'0 0.0
2018-Apr-10 01:00N 52°58' E 004°47'0 0.0
2018-Apr-10 00:30N 52°58' E 004°47'0 0.0
2018-Apr-10 00:00N 52°58' E 004°47'0 0.0
2018-Apr-09 23:30N 52°58' E 004°47'0 0.0
2018-Apr-09 23:00N 52°58' E 004°47'0 0.0
2018-Apr-09 22:30N 52°58' E 004°47'0 0.0
2018-Apr-09 22:00N 52°58' E 004°47'0 0.0
2018-Apr-09 21:30N 52°58' E 004°47'0 0.0
2018-Apr-09 21:00N 52°58' E 004°47'0 0.0
2018-Apr-09 20:30N 52°58' E 004°47'0 0.0
2018-Apr-09 20:00N 52°58' E 004°47'0 0.0
2018-Apr-09 19:30N 52°58' E 004°47'0 0.0
2018-Apr-09 19:00N 52°58' E 004°47'0 0.0
2018-Apr-09 18:30N 52°58' E 004°47'0 0.0
2018-Apr-09 18:00N 52°58' E 004°47'0 0.0
2018-Apr-09 17:30N 52°58' E 004°47'0 0.0
2018-Apr-09 17:00N 52°58' E 004°47'0 0.0
2018-Apr-09 16:30N 52°58' E 004°47'0 0.0
2018-Apr-09 16:00N 52°58' E 004°47'0 0.0
2018-Apr-09 15:30N 52°58' E 004°47'0 0.0
2018-Apr-09 15:00N 52°58' E 004°47'0 0.0
2018-Apr-09 14:30N 52°58' E 004°47'0 0.0
2018-Apr-09 14:00N 52°58' E 004°47'0 0.0
2018-Apr-09 13:30N 52°58' E 004°47'0 0.0
2018-Apr-09 13:00N 52°58' E 004°47'0 0.0
2018-Apr-09 12:30N 52°58' E 004°47'0 0.0
2018-Apr-09 12:00N 52°58' E 004°47'0 0.0
2018-Apr-09 11:30N 52°58' E 004°47'0 0.0
2018-Apr-09 11:00N 52°58' E 004°47'0 0.0
2018-Apr-09 10:30N 52°58' E 004°47'0 0.0
2018-Apr-09 10:00N 52°58' E 004°47'0 0.0
2018-Apr-09 09:30N 52°58' E 004°47'0 0.0
2018-Apr-09 09:00N 52°58' E 004°47'0 0.0
2018-Apr-09 08:30N 52°58' E 004°47'0 0.0
2018-Apr-09 08:00N 52°58' E 004°47'0 0.0
2018-Apr-09 07:30N 52°58' E 004°47'0 0.0
2018-Apr-09 07:00N 52°58' E 004°47'0 0.0
2018-Apr-09 06:30N 52°58' E 004°47'0 0.0
2018-Apr-09 06:00N 52°58' E 004°47'0 0.0
2018-Apr-09 05:30N 52°58' E 004°47'0 0.0
2018-Apr-09 05:00N 52°58' E 004°47'0 0.0
2018-Apr-09 04:30N 52°58' E 004°47'0 0.0
2018-Apr-09 04:00N 52°58' E 004°47'0 0.0
2018-Apr-09 03:30N 52°58' E 004°47'0 0.0
2018-Apr-09 03:00N 52°58' E 004°47'0 0.0
2018-Apr-09 02:30N 52°58' E 004°47'0 0.0
2018-Apr-09 02:00N 52°58' E 004°47'0 0.0
2018-Apr-09 01:30N 52°58' E 004°47'0 0.0
2018-Apr-09 01:00N 52°58' E 004°47'0 0.0
2018-Apr-09 00:30N 52°58' E 004°47'0 0.0
2018-Apr-09 00:00N 52°58' E 004°47'0 0.0
2018-Apr-08 23:30N 52°58' E 004°47'0 0.0
2018-Apr-08 23:00N 52°58' E 004°47'0 0.0
2018-Apr-08 22:30N 52°58' E 004°47'0 0.0
2018-Apr-08 22:00N 52°58' E 004°47'0 0.0
2018-Apr-08 21:30N 52°58' E 004°47'0 0.0
2018-Apr-08 21:00N 52°58' E 004°47'0 0.0
2018-Apr-08 20:30N 52°58' E 004°47'0 0.0
2018-Apr-08 20:00N 52°58' E 004°47'0 0.0
2018-Apr-08 19:30N 52°58' E 004°47'0 0.0
2018-Apr-08 19:00N 52°58' E 004°47'0 0.0
2018-Apr-08 18:30N 52°58' E 004°47'0 0.0
2018-Apr-08 18:00N 52°58' E 004°47'0 0.0
2018-Apr-08 17:30N 52°58' E 004°47'0 0.0
2018-Apr-08 17:00N 52°58' E 004°47'0 0.0
2018-Apr-08 16:30N 52°58' E 004°47'0 0.0
2018-Apr-08 15:58N 52°58' E 004°47'0 0.0
2018-Apr-08 15:30N 52°58' E 004°47'0 0.0
2018-Apr-08 15:00N 52°58' E 004°47'1 1.2
2018-Apr-08 14:28N 52°58' E 004°47'0 1.0
2018-Apr-08 13:57N 52°58' E 004°47'0 0.9
2018-Apr-08 13:30N 52°59' E 004°46'2 3.4
2018-Apr-08 12:59N 52°58' E 004°43'4 7.8
2018-Apr-08 12:30N 52°55' E 004°40'611.8
2018-Apr-08 12:00N 52°51' E 004°33'713.0
2018-Apr-08 11:30N 52°47' E 004°24'713.6
2018-Apr-08 10:59N 52°44' E 004°14'813.8
2018-Apr-08 10:26N 52°39' E 004°03'613.2
2018-Apr-08 10:00N 52°36' E 003°55'713.1
2018-Apr-08 09:30N 52°32' E 003°47'813.4
2018-Apr-08 08:52N 52°26' E 003°37'513.6
2018-Apr-08 08:28N 52°23' E 003°30'4514.2
2018-Apr-08 05:17N 51°49' E 002°41'414.0
2018-Apr-08 04:59N 51°46' E 002°36'813.7
2018-Apr-08 04:25N 51°40' E 002°28'613.5
2018-Apr-08 04:00N 51°36' E 002°22'713.4
2018-Apr-08 03:30N 51°31' E 002°16'612.9
2018-Apr-08 03:00N 51°25' E 002°11'613.0
2018-Apr-08 02:30N 51°19' E 002°07'612.3
2018-Apr-08 02:00N 51°14' E 002°03'612.4
2018-Apr-08 01:30N 51°10' E 001°54'612.1
2018-Apr-08 01:01N 51°07' E 001°46'611.8
2018-Apr-08 00:30N 51°03' E 001°39'611.5
2018-Apr-07 23:59N 50°59' E 001°33'711.6
2018-Apr-07 23:25N 50°54' E 001°26'5211.3
2018-Apr-07 18:50N 50°24' E 000°20'412.2
2018-Apr-07 18:29N 50°23' E 000°13'612.3
2018-Apr-07 18:00N 50°21' E 000°04'612.4
2018-Apr-07 17:30N 50°20' W 000°05'612.4
2018-Apr-07 17:01N 50°18' W 000°15'712.4
2018-Apr-07 16:29N 50°16' W 000°25'1612.9
2018-Apr-07 15:14N 50°12' W 000°48'313.6
2018-Apr-07 14:59N 50°11' W 000°54'714.0
2018-Apr-07 14:30N 50°09' W 001°04'714.6
2018-Apr-07 14:00N 50°07' W 001°15'714.9
2018-Apr-07 13:31N 50°05' W 001°26'815.3
2018-Apr-07 13:01N 50°03' W 001°37'815.6
2018-Apr-07 12:31N 50°01' W 001°49'815.9
2018-Apr-07 12:00N 49°59' W 002°01'2915.0
2018-Apr-07 10:04N 49°51' W 002°44'1513.5
2018-Apr-07 08:58N 49°44' W 003°05'9312.5
2018-Apr-07 01:31N 48°57' W 005°08'011.7
2018-Apr-07 01:30N 48°57' W 005°09'711.9
2018-Apr-07 00:55N 48°54' W 005°18'511.9
2018-Apr-07 00:30N 48°51' W 005°24'611.8
2018-Apr-06 23:57N 48°48' W 005°33'611.4
2018-Apr-06 23:28N 48°44' W 005°38'4712.8
2018-Apr-06 19:48N 48°02' W 006°11'53512.4
2018-Apr-05 00:38N 39°31' W 009°50'311.8
2018-Apr-05 00:24N 39°28' W 009°50'511.6
2018-Apr-05 00:00N 39°23' W 009°50'611.9
2018-Apr-04 23:30N 39°17' W 009°50'611.9
2018-Apr-04 23:00N 39°11' W 009°50'611.9
2018-Apr-04 22:30N 39°05' W 009°50'1211.6
2018-Apr-04 21:31N 38°54' W 009°50'611.4
2018-Apr-04 21:00N 38°48' W 009°50'611.3
2018-Apr-04 20:30N 38°43' W 009°50'510.8
2018-Apr-04 20:01N 38°37' W 009°48'510.1
2018-Apr-04 19:30N 38°34' W 009°43'510.5
2018-Apr-04 19:00N 38°31' W 009°37'510.1
2018-Apr-04 18:30N 38°28' W 009°32'510.1
2018-Apr-04 18:00N 38°26' W 009°27'5 9.9
2018-Apr-04 17:30N 38°23' W 009°22'510.0
2018-Apr-04 17:00N 38°21' W 009°16'510.0
2018-Apr-04 16:30N 38°20' W 009°09'5 9.9
2018-Apr-04 16:00N 38°22' W 009°03'611.9
2018-Apr-04 15:30N 38°27' W 008°59'5 9.9
2018-Apr-04 15:00N 38°31' W 008°54'4 8.1
2018-Apr-04 14:30N 38°29' W 008°50'0 0.4
2018-Apr-04 13:59N 38°29' W 008°49'0 0.0
2018-Apr-04 13:28N 38°29' W 008°49'0 0.0
2018-Apr-04 12:55N 38°29' W 008°49'0 0.0
2018-Apr-04 12:28N 38°29' W 008°49'0 0.0
2018-Apr-04 10:17N 38°29' W 008°49'0 0.0
2018-Apr-04 09:56N 38°29' W 008°49'0 0.0
2018-Apr-04 09:28N 38°29' W 008°49'0 0.0
2018-Apr-04 08:52N 38°29' W 008°49'0 0.0
2018-Apr-04 08:28N 38°29' W 008°49'0 0.0
2018-Apr-04 07:59N 38°29' W 008°49'0 0.0
2018-Apr-04 07:28N 38°29' W 008°49'0 0.0
2018-Apr-04 07:00N 38°29' W 008°49'0 0.0
2018-Apr-04 06:30N 38°29' W 008°49'0 0.0
2018-Apr-04 06:00N 38°29' W 008°49'0 0.0
2018-Apr-04 05:30N 38°29' W 008°49'0 0.0
2018-Apr-04 05:00N 38°29' W 008°49'0 0.0
2018-Apr-04 04:30N 38°29' W 008°49'0 0.0
2018-Apr-04 04:00N 38°29' W 008°49'0 0.0
2018-Apr-04 03:30N 38°29' W 008°49'0 0.0
2018-Apr-04 03:01N 38°29' W 008°49'0 0.0
2018-Apr-04 02:31N 38°29' W 008°49'0 0.0
2018-Apr-04 02:01N 38°29' W 008°49'0 0.0
2018-Apr-04 01:30N 38°29' W 008°49'0 0.0
2018-Apr-04 01:00N 38°29' W 008°49'0 0.0
2018-Apr-04 00:30N 38°29' W 008°49'0 0.0
2018-Apr-04 00:00N 38°29' W 008°49'0 0.0
2018-Apr-03 23:30N 38°29' W 008°49'0 0.0
2018-Apr-03 23:00N 38°29' W 008°49'0 0.0
2018-Apr-03 22:30N 38°29' W 008°49'0 0.0
2018-Apr-03 22:00N 38°29' W 008°49'0 0.0
2018-Apr-03 21:30N 38°29' W 008°49'0 0.0
2018-Apr-03 21:00N 38°29' W 008°49'0 0.0
2018-Apr-03 20:30N 38°29' W 008°49'0 0.0
2018-Apr-03 20:00N 38°29' W 008°49'0 0.0
2018-Apr-03 19:30N 38°29' W 008°49'0 0.0
2018-Apr-03 19:00N 38°29' W 008°49'0 0.0
2018-Apr-03 18:30N 38°29' W 008°49'0 0.0
2018-Apr-03 18:00N 38°29' W 008°49'0 0.0
2018-Apr-03 17:30N 38°29' W 008°49'0 0.0
2018-Apr-03 17:00N 38°29' W 008°49'0 0.0
2018-Apr-03 16:29N 38°29' W 008°49'0 0.0
2018-Apr-03 16:00N 38°29' W 008°49'0 0.0
2018-Apr-03 15:30N 38°29' W 008°49'0 0.0
2018-Apr-03 14:57N 38°29' W 008°49'0 0.0
2018-Apr-03 14:30N 38°29' W 008°49'0 0.0
2018-Apr-03 14:00N 38°29' W 008°49'0 0.0
2018-Apr-03 13:30N 38°29' W 008°49'0 0.0
2018-Apr-03 13:00N 38°29' W 008°49'0 0.0
2018-Apr-03 12:30N 38°29' W 008°49'0 0.0
2018-Apr-03 12:00N 38°29' W 008°49'0 0.0
2018-Apr-03 11:30N 38°29' W 008°49'0 0.0
2018-Apr-03 10:59N 38°29' W 008°49'0 0.0
2018-Apr-03 10:30N 38°29' W 008°49'0 0.0
2018-Apr-03 10:01N 38°29' W 008°49'0 0.0
2018-Apr-03 09:30N 38°29' W 008°49'0 0.0
2018-Apr-03 09:00N 38°29' W 008°49'0 0.0
2018-Apr-03 08:25N 38°29' W 008°49'0 0.0
2018-Apr-03 08:00N 38°29' W 008°49'0 0.0
2018-Apr-03 07:30N 38°29' W 008°49'0 0.0
2018-Apr-03 07:00N 38°29' W 008°49'0 0.0
2018-Apr-03 06:30N 38°29' W 008°49'0 0.0
2018-Apr-03 06:00N 38°29' W 008°49'0 0.0
2018-Apr-03 05:30N 38°29' W 008°49'0 0.0
2018-Apr-03 05:00N 38°29' W 008°49'0 0.0
2018-Apr-03 04:29N 38°29' W 008°49'0 0.0
2018-Apr-03 03:57N 38°29' W 008°49'0 0.0
2018-Apr-03 03:30N 38°29' W 008°49'0 0.0
2018-Apr-03 03:00N 38°29' W 008°49'0 0.0
2018-Apr-03 02:30N 38°29' W 008°49'0 0.0
2018-Apr-03 02:00N 38°29' W 008°49'0 0.0
2018-Apr-03 01:30N 38°29' W 008°49'0 0.0
2018-Apr-03 01:00N 38°29' W 008°49'0 0.0
2018-Apr-03 00:30N 38°29' W 008°49'0 0.0
2018-Apr-02 23:59N 38°29' W 008°49'0 0.0
2018-Apr-02 23:30N 38°29' W 008°49'0 0.0
2018-Apr-02 23:00N 38°29' W 008°49'0 0.0
2018-Apr-02 22:30N 38°29' W 008°49'0 0.0
2018-Apr-02 22:00N 38°29' W 008°49'0 0.0
2018-Apr-02 21:30N 38°29' W 008°49'0 0.0
2018-Apr-02 21:00N 38°29' W 008°49'0 0.0
2018-Apr-02 20:31N 38°29' W 008°49'0 0.0
2018-Apr-02 20:00N 38°29' W 008°49'0 0.0
2018-Apr-02 19:30N 38°29' W 008°49'0 0.0
2018-Apr-02 19:01N 38°29' W 008°49'0 0.0
2018-Apr-02 18:30N 38°29' W 008°49'0 0.0
2018-Apr-02 17:58N 38°29' W 008°49'0 0.0
2018-Apr-02 17:31N 38°29' W 008°49'0 0.0
2018-Apr-02 17:00N 38°29' W 008°49'0 0.0
2018-Apr-02 16:30N 38°29' W 008°49'0 0.0
2018-Apr-02 16:00N 38°29' W 008°49'0 0.0
2018-Apr-02 15:30N 38°29' W 008°49'0 0.0
2018-Apr-02 15:00N 38°29' W 008°49'0 0.0
2018-Apr-02 14:30N 38°29' W 008°49'0 0.0
2018-Apr-02 14:00N 38°29' W 008°49'0 0.0
2018-Apr-02 13:28N 38°29' W 008°49'0 0.0
2018-Apr-02 13:00N 38°29' W 008°49'0 0.0
2018-Apr-02 12:30N 38°29' W 008°49'0 0.0
2018-Apr-02 12:01N 38°29' W 008°49'0 0.0
2018-Apr-02 11:30N 38°29' W 008°49'0 0.0
2018-Apr-02 11:00N 38°29' W 008°49'0 0.0
2018-Apr-02 10:30N 38°29' W 008°49'  
Track history (hours):
 
Tides and Currents Weather Stations Pressure Air Temp Water Temp Dewpoint Dewpoint Depression Visibility Wind Speed Wind Dir Waves Ship Positions

Stella Prima

Last reported at 2018-Apr-12 10:11 UTC. Time now 2018-Apr-22 06:29 UTC.
Position N 49°52' W 004°27'.
Warning: this ship's position is 9 days out of date.

Length 100 m; beam 21 m.

Type: Cargo ship. MMSI: 246460000.

Date/timePositionNaut miles runAvg speedWind from/ knotsBaromVisibWave heightAir tempDewpointWater temp
2018-Apr-12 10:11N 49°52' W 004°27'713.5
2018-Apr-12 09:41N 49°53' W 004°16'2013.7
2018-Apr-12 08:15N 49°56' W 003°46'313.4
2018-Apr-12 08:00N 49°56' W 003°41'713.3
2018-Apr-12 07:30N 49°57' W 003°31'613.0
2018-Apr-12 07:01N 49°58' W 003°21'612.7
2018-Apr-12 06:30N 49°58' W 003°11'612.4
2018-Apr-12 06:00N 49°59' W 003°01'612.0
2018-Apr-12 05:30N 50°01' W 002°52'611.8
2018-Apr-12 05:00N 50°02' W 002°43'611.7
2018-Apr-12 04:30N 50°04' W 002°35'1811.9
2018-Apr-12 03:00N 50°09' W 002°08'612.5
2018-Apr-12 02:29N 50°11' W 001°59'713.0
2018-Apr-12 01:56N 50°13' W 001°48'613.5
2018-Apr-12 01:29N 50°14' W 001°39'714.1
2018-Apr-12 01:01N 50°16' W 001°28'714.4
2018-Apr-12 00:30N 50°18' W 001°17'1015.0
2018-Apr-11 23:52N 50°21' W 001°03'615.3
2018-Apr-11 23:30N 50°22' W 000°54'714.8
2018-Apr-11 23:01N 50°24' W 000°43'714.4
2018-Apr-11 22:31N 50°26' W 000°33'714.1
2018-Apr-11 22:00N 50°27' W 000°22'713.6
2018-Apr-11 21:30N 50°29' W 000°12'713.2
2018-Apr-11 20:59N 50°31' W 000°01'612.9
2018-Apr-11 20:30N 50°32' E 000°09'612.5
2018-Apr-11 20:00N 50°33' E 000°18'612.3
2018-Apr-11 19:30N 50°35' E 000°28'612.1
2018-Apr-11 19:00N 50°39' E 000°35'612.2
2018-Apr-11 18:30N 50°42' E 000°43'612.3
2018-Apr-11 18:00N 50°46' E 000°51'612.9
2018-Apr-11 17:30N 50°50' E 000°59'713.4
2018-Apr-11 16:59N 50°54' E 001°08'713.9
2018-Apr-11 16:30N 50°58' E 001°16'714.6
2018-Apr-11 16:01N 51°03' E 001°25'714.9
2018-Apr-11 15:31N 51°07' E 001°34'714.5
2018-Apr-11 15:01N 51°12' E 001°43'713.9
2018-Apr-11 14:30N 51°18' E 001°49'713.4
2018-Apr-11 14:00N 51°24' E 001°55'612.8
2018-Apr-11 13:31N 51°29' E 002°00'612.5
2018-Apr-11 13:00N 51°34' E 002°07'612.3
2018-Apr-11 12:30N 51°38' E 002°14'612.0
2018-Apr-11 12:00N 51°43' E 002°19'611.7
2018-Apr-11 11:30N 51°47' E 002°26'611.6
2018-Apr-11 10:59N 51°52' E 002°32'8212.6
2018-Apr-11 04:28N 52°44' E 004°16'612.6
2018-Apr-11 04:00N 52°48' E 004°24'612.4
2018-Apr-11 03:30N 52°51' E 004°33'612.0
2018-Apr-11 03:00N 52°55' E 004°40'510.6
2018-Apr-11 02:30N 52°58' E 004°47'1 1.5
2018-Apr-11 01:58N 52°58' E 004°47'0 0.0
2018-Apr-11 01:28N 52°58' E 004°47'0 0.0
2018-Apr-11 00:58N 52°58' E 004°47'0 0.0
2018-Apr-11 00:28N 52°58' E 004°47'0 0.0
2018-Apr-11 00:00N 52°58' E 004°47'0 0.0
2018-Apr-10 23:30N 52°58' E 004°47'0 0.0
2018-Apr-10 23:00N 52°58' E 004°47'0 0.0
2018-Apr-10 22:30N 52°58' E 004°47'0 0.0
2018-Apr-10 22:00N 52°58' E 004°47'0 0.0
2018-Apr-10 21:30N 52°58' E 004°47'0 0.0
2018-Apr-10 21:00N 52°58' E 004°47'0 0.0
2018-Apr-10 20:30N 52°58' E 004°47'0 0.0
2018-Apr-10 20:00N 52°58' E 004°47'0 0.0
2018-Apr-10 19:30N 52°58' E 004°47'0 0.0
2018-Apr-10 19:00N 52°58' E 004°47'0 0.0
2018-Apr-10 18:30N 52°58' E 004°47'0 0.0
2018-Apr-10 18:00N 52°58' E 004°47'0 0.0
2018-Apr-10 17:30N 52°58' E 004°47'0 0.0
2018-Apr-10 17:00N 52°58' E 004°47'0 0.0
2018-Apr-10 16:30N 52°58' E 004°47'0 0.0
2018-Apr-10 16:00N 52°58' E 004°47'0 0.0
2018-Apr-10 15:30N 52°58' E 004°47'0 0.0
2018-Apr-10 15:00N 52°58' E 004°47'0 0.0
2018-Apr-10 14:30N 52°58' E 004°47'0 0.0
2018-Apr-10 14:00N 52°58' E 004°47'0 0.0
2018-Apr-10 13:30N 52°58' E 004°47'0 0.0
2018-Apr-10 13:00N 52°58' E 004°47'0 0.0
2018-Apr-10 12:30N 52°58' E 004°47'0 0.0
2018-Apr-10 12:00N 52°58' E 004°47'0 0.0
2018-Apr-10 11:30N 52°58' E 004°47'0 0.0
2018-Apr-10 11:00N 52°58' E 004°47'0 0.0
2018-Apr-10 10:30N 52°58' E 004°47'0 0.0
2018-Apr-10 10:00N 52°58' E 004°47'0 0.0
2018-Apr-10 09:30N 52°58' E 004°47'0 0.0
2018-Apr-10 09:00N 52°58' E 004°47'0 0.0
2018-Apr-10 08:30N 52°58' E 004°47'0 0.0
2018-Apr-10 08:00N 52°58' E 004°47'0 0.0
2018-Apr-10 07:30N 52°58' E 004°47'0 0.0
2018-Apr-10 07:00N 52°58' E 004°47'0 0.0
2018-Apr-10 06:30N 52°58' E 004°47'0 0.0
2018-Apr-10 06:00N 52°58' E 004°47'0 0.0
2018-Apr-10 05:30N 52°58' E 004°47'0 0.0
2018-Apr-10 05:00N 52°58' E 004°47'0 0.0
2018-Apr-10 04:30N 52°58' E 004°47'0 0.0
2018-Apr-10 04:00N 52°58' E 004°47'0 0.0
2018-Apr-10 03:30N 52°58' E 004°47'0 0.0
2018-Apr-10 03:00N 52°58' E 004°47'0 0.0
2018-Apr-10 02:30N 52°58' E 004°47'0 0.0
2018-Apr-10 02:00N 52°58' E 004°47'0 0.0
2018-Apr-10 01:30N 52°58' E 004°47'0 0.0
2018-Apr-10 01:00N 52°58' E 004°47'0 0.0
2018-Apr-10 00:30N 52°58' E 004°47'0 0.0
2018-Apr-10 00:00N 52°58' E 004°47'0 0.0
2018-Apr-09 23:30N 52°58' E 004°47'0 0.0
2018-Apr-09 23:00N 52°58' E 004°47'0 0.0
2018-Apr-09 22:30N 52°58' E 004°47'0 0.0
2018-Apr-09 22:00N 52°58' E 004°47'0 0.0
2018-Apr-09 21:30N 52°58' E 004°47'0 0.0
2018-Apr-09 21:00N 52°58' E 004°47'0 0.0
2018-Apr-09 20:30N 52°58' E 004°47'0 0.0
2018-Apr-09 20:00N 52°58' E 004°47'0 0.0
2018-Apr-09 19:30N 52°58' E 004°47'0 0.0
2018-Apr-09 19:00N 52°58' E 004°47'0 0.0
2018-Apr-09 18:30N 52°58' E 004°47'0 0.0
2018-Apr-09 18:00N 52°58' E 004°47'0 0.0
2018-Apr-09 17:30N 52°58' E 004°47'0 0.0
2018-Apr-09 17:00N 52°58' E 004°47'0 0.0
2018-Apr-09 16:30N 52°58' E 004°47'0 0.0
2018-Apr-09 16:00N 52°58' E 004°47'0 0.0
2018-Apr-09 15:30N 52°58' E 004°47'0 0.0
2018-Apr-09 15:00N 52°58' E 004°47'0 0.0
2018-Apr-09 14:30N 52°58' E 004°47'0 0.0
2018-Apr-09 14:00N 52°58' E 004°47'0 0.0
2018-Apr-09 13:30N 52°58' E 004°47'0 0.0
2018-Apr-09 13:00N 52°58' E 004°47'0 0.0
2018-Apr-09 12:30N 52°58' E 004°47'0 0.0
2018-Apr-09 12:00N 52°58' E 004°47'0 0.0
2018-Apr-09 11:30N 52°58' E 004°47'0 0.0
2018-Apr-09 11:00N 52°58' E 004°47'0 0.0
2018-Apr-09 10:30N 52°58' E 004°47'0 0.0
2018-Apr-09 10:00N 52°58' E 004°47'0 0.0
2018-Apr-09 09:30N 52°58' E 004°47'0 0.0
2018-Apr-09 09:00N 52°58' E 004°47'0 0.0
2018-Apr-09 08:30N 52°58' E 004°47'0 0.0
2018-Apr-09 08:00N 52°58' E 004°47'0 0.0
2018-Apr-09 07:30N 52°58' E 004°47'0 0.0
2018-Apr-09 07:00N 52°58' E 004°47'0 0.0
2018-Apr-09 06:30N 52°58' E 004°47'0 0.0
2018-Apr-09 06:00N 52°58' E 004°47'0 0.0
2018-Apr-09 05:30N 52°58' E 004°47'0 0.0
2018-Apr-09 05:00N 52°58' E 004°47'0 0.0
2018-Apr-09 04:30N 52°58' E 004°47'0 0.0
2018-Apr-09 04:00N 52°58' E 004°47'0 0.0
2018-Apr-09 03:30N 52°58' E 004°47'0 0.0
2018-Apr-09 03:00N 52°58' E 004°47'0 0.0
2018-Apr-09 02:30N 52°58' E 004°47'0 0.0
2018-Apr-09 02:00N 52°58' E 004°47'0 0.0
2018-Apr-09 01:30N 52°58' E 004°47'0 0.0
2018-Apr-09 01:00N 52°58' E 004°47'0 0.0
2018-Apr-09 00:30N 52°58' E 004°47'0 0.0
2018-Apr-09 00:00N 52°58' E 004°47'0 0.0
2018-Apr-08 23:30N 52°58' E 004°47'0 0.0
2018-Apr-08 23:00N 52°58' E 004°47'0 0.0
2018-Apr-08 22:30N 52°58' E 004°47'0 0.0
2018-Apr-08 22:00N 52°58' E 004°47'0 0.0
2018-Apr-08 21:30N 52°58' E 004°47'0 0.0
2018-Apr-08 21:00N 52°58' E 004°47'0 0.0
2018-Apr-08 20:30N 52°58' E 004°47'0 0.0
2018-Apr-08 20:00N 52°58' E 004°47'0 0.0
2018-Apr-08 19:30N 52°58' E 004°47'0 0.0
2018-Apr-08 19:00N 52°58' E 004°47'0 0.0
2018-Apr-08 18:30N 52°58' E 004°47'0 0.0
2018-Apr-08 18:00N 52°58' E 004°47'0 0.0
2018-Apr-08 17:30N 52°58' E 004°47'0 0.0
2018-Apr-08 17:00N 52°58' E 004°47'0 0.0
2018-Apr-08 16:30N 52°58' E 004°47'0 0.0
2018-Apr-08 15:58N 52°58' E 004°47'0 0.0
2018-Apr-08 15:30N 52°58' E 004°47'0 0.0
2018-Apr-08 15:00N 52°58' E 004°47'1 1.2
2018-Apr-08 14:28N 52°58' E 004°47'0 1.0
2018-Apr-08 13:57N 52°58' E 004°47'0 0.9
2018-Apr-08 13:30N 52°59' E 004°46'2 3.4
2018-Apr-08 12:59N 52°58' E 004°43'4 7.8
2018-Apr-08 12:30N 52°55' E 004°40'611.8
2018-Apr-08 12:00N 52°51' E 004°33'713.0
2018-Apr-08 11:30N 52°47' E 004°24'713.6
2018-Apr-08 10:59N 52°44' E 004°14'813.8
2018-Apr-08 10:26N 52°39' E 004°03'613.2
2018-Apr-08 10:00N 52°36' E 003°55'713.1
2018-Apr-08 09:30N 52°32' E 003°47'813.4
2018-Apr-08 08:52N 52°26' E 003°37'513.6
2018-Apr-08 08:28N 52°23' E 003°30'4514.2
2018-Apr-08 05:17N 51°49' E 002°41'414.0
2018-Apr-08 04:59N 51°46' E 002°36'813.7
2018-Apr-08 04:25N 51°40' E 002°28'613.5
2018-Apr-08 04:00N 51°36' E 002°22'713.4
2018-Apr-08 03:30N 51°31' E 002°16'612.9
2018-Apr-08 03:00N 51°25' E 002°11'613.0
2018-Apr-08 02:30N 51°19' E 002°07'612.3
2018-Apr-08 02:00N 51°14' E 002°03'612.4
2018-Apr-08 01:30N 51°10' E 001°54'612.1
2018-Apr-08 01:01N 51°07' E 001°46'611.8
2018-Apr-08 00:30N 51°03' E 001°39'611.5
2018-Apr-07 23:59N 50°59' E 001°33'711.6
2018-Apr-07 23:25N 50°54' E 001°26'5211.3
2018-Apr-07 18:50N 50°24' E 000°20'412.2
2018-Apr-07 18:29N 50°23' E 000°13'612.3
2018-Apr-07 18:00N 50°21' E 000°04'612.4
2018-Apr-07 17:30N 50°20' W 000°05'612.4
2018-Apr-07 17:01N 50°18' W 000°15'712.4
2018-Apr-07 16:29N 50°16' W 000°25'1612.9
2018-Apr-07 15:14N 50°12' W 000°48'313.6
2018-Apr-07 14:59N 50°11' W 000°54'714.0
2018-Apr-07 14:30N 50°09' W 001°04'714.6
2018-Apr-07 14:00N 50°07' W 001°15'714.9
2018-Apr-07 13:31N 50°05' W 001°26'815.3
2018-Apr-07 13:01N 50°03' W 001°37'815.6
2018-Apr-07 12:31N 50°01' W 001°49'815.9
2018-Apr-07 12:00N 49°59' W 002°01'2915.0
2018-Apr-07 10:04N 49°51' W 002°44'1513.5
2018-Apr-07 08:58N 49°44' W 003°05'9312.5
2018-Apr-07 01:31N 48°57' W 005°08'011.7
2018-Apr-07 01:30N 48°57' W 005°09'711.9
2018-Apr-07 00:55N 48°54' W 005°18'511.9
2018-Apr-07 00:30N 48°51' W 005°24'611.8
2018-Apr-06 23:57N 48°48' W 005°33'611.4
2018-Apr-06 23:28N 48°44' W 005°38'4712.8
2018-Apr-06 19:48N 48°02' W 006°11'53512.4
2018-Apr-05 00:38N 39°31' W 009°50'311.8
2018-Apr-05 00:24N 39°28' W 009°50'511.6
2018-Apr-05 00:00N 39°23' W 009°50'611.9
2018-Apr-04 23:30N 39°17' W 009°50'611.9
2018-Apr-04 23:00N 39°11' W 009°50'611.9
2018-Apr-04 22:30N 39°05' W 009°50'1211.6
2018-Apr-04 21:31N 38°54' W 009°50'611.4
2018-Apr-04 21:00N 38°48' W 009°50'611.3
2018-Apr-04 20:30N 38°43' W 009°50'510.8
2018-Apr-04 20:01N 38°37' W 009°48'510.1
2018-Apr-04 19:30N 38°34' W 009°43'510.5
2018-Apr-04 19:00N 38°31' W 009°37'510.1
2018-Apr-04 18:30N 38°28' W 009°32'510.1
2018-Apr-04 18:00N 38°26' W 009°27'5 9.9
2018-Apr-04 17:30N 38°23' W 009°22'510.0
2018-Apr-04 17:00N 38°21' W 009°16'510.0
2018-Apr-04 16:30N 38°20' W 009°09'5 9.9
2018-Apr-04 16:00N 38°22' W 009°03'611.9
2018-Apr-04 15:30N 38°27' W 008°59'5 9.9
2018-Apr-04 15:00N 38°31' W 008°54'4 8.1
2018-Apr-04 14:30N 38°29' W 008°50'0 0.4
2018-Apr-04 13:59N 38°29' W 008°49'0 0.0
2018-Apr-04 13:28N 38°29' W 008°49'0 0.0
2018-Apr-04 12:55N 38°29' W 008°49'0 0.0
2018-Apr-04 12:28N 38°29' W 008°49'0 0.0
2018-Apr-04 10:17N 38°29' W 008°49'0 0.0
2018-Apr-04 09:56N 38°29' W 008°49'0 0.0
2018-Apr-04 09:28N 38°29' W 008°49'0 0.0
2018-Apr-04 08:52N 38°29' W 008°49'0 0.0
2018-Apr-04 08:28N 38°29' W 008°49'0 0.0
2018-Apr-04 07:59N 38°29' W 008°49'0 0.0
2018-Apr-04 07:28N 38°29' W 008°49'0 0.0
2018-Apr-04 07:00N 38°29' W 008°49'0 0.0
2018-Apr-04 06:30N 38°29' W 008°49'0 0.0
2018-Apr-04 06:00N 38°29' W 008°49'0 0.0
2018-Apr-04 05:30N 38°29' W 008°49'0 0.0
2018-Apr-04 05:00N 38°29' W 008°49'0 0.0
2018-Apr-04 04:30N 38°29' W 008°49'0 0.0
2018-Apr-04 04:00N 38°29' W 008°49'0 0.0
2018-Apr-04 03:30N 38°29' W 008°49'0 0.0
2018-Apr-04 03:01N 38°29' W 008°49'0 0.0
2018-Apr-04 02:31N 38°29' W 008°49'0 0.0
2018-Apr-04 02:01N 38°29' W 008°49'0 0.0
2018-Apr-04 01:30N 38°29' W 008°49'0 0.0
2018-Apr-04 01:00N 38°29' W 008°49'0 0.0
2018-Apr-04 00:30N 38°29' W 008°49'0 0.0
2018-Apr-04 00:00N 38°29' W 008°49'0 0.0
2018-Apr-03 23:30N 38°29' W 008°49'0 0.0
2018-Apr-03 23:00N 38°29' W 008°49'0 0.0
2018-Apr-03 22:30N 38°29' W 008°49'0 0.0
2018-Apr-03 22:00N 38°29' W 008°49'0 0.0
2018-Apr-03 21:30N 38°29' W 008°49'0 0.0
2018-Apr-03 21:00N 38°29' W 008°49'0 0.0
2018-Apr-03 20:30N 38°29' W 008°49'0 0.0
2018-Apr-03 20:00N 38°29' W 008°49'0 0.0
2018-Apr-03 19:30N 38°29' W 008°49'0 0.0
2018-Apr-03 19:00N 38°29' W 008°49'0 0.0
2018-Apr-03 18:30N 38°29' W 008°49'0 0.0
2018-Apr-03 18:00N 38°29' W 008°49'0 0.0
2018-Apr-03 17:30N 38°29' W 008°49'0 0.0
2018-Apr-03 17:00N 38°29' W 008°49'0 0.0
2018-Apr-03 16:29N 38°29' W 008°49'0 0.0
2018-Apr-03 16:00N 38°29' W 008°49'0 0.0
2018-Apr-03 15:30N 38°29' W 008°49'0 0.0
2018-Apr-03 14:57N 38°29' W 008°49'0 0.0
2018-Apr-03 14:30N 38°29' W 008°49'0 0.0
2018-Apr-03 14:00N 38°29' W 008°49'0 0.0
2018-Apr-03 13:30N 38°29' W 008°49'0 0.0
2018-Apr-03 13:00N 38°29' W 008°49'0 0.0
2018-Apr-03 12:30N 38°29' W 008°49'0 0.0
2018-Apr-03 12:00N 38°29' W 008°49'0 0.0
2018-Apr-03 11:30N 38°29' W 008°49'0 0.0
2018-Apr-03 10:59N 38°29' W 008°49'0 0.0
2018-Apr-03 10:30N 38°29' W 008°49'0 0.0
2018-Apr-03 10:01N 38°29' W 008°49'0 0.0
2018-Apr-03 09:30N 38°29' W 008°49'0 0.0
2018-Apr-03 09:00N 38°29' W 008°49'0 0.0
2018-Apr-03 08:25N 38°29' W 008°49'0 0.0
2018-Apr-03 08:00N 38°29' W 008°49'0 0.0
2018-Apr-03 07:30N 38°29' W 008°49'0 0.0
2018-Apr-03 07:00N 38°29' W 008°49'0 0.0
2018-Apr-03 06:30N 38°29' W 008°49'0 0.0
2018-Apr-03 06:00N 38°29' W 008°49'0 0.0
2018-Apr-03 05:30N 38°29' W 008°49'0 0.0
2018-Apr-03 05:00N 38°29' W 008°49'0 0.0
2018-Apr-03 04:29N 38°29' W 008°49'0 0.0
2018-Apr-03 03:57N 38°29' W 008°49'0 0.0
2018-Apr-03 03:30N 38°29' W 008°49'0 0.0
2018-Apr-03 03:00N 38°29' W 008°49'0 0.0
2018-Apr-03 02:30N 38°29' W 008°49'0 0.0
2018-Apr-03 02:00N 38°29' W 008°49'0 0.0
2018-Apr-03 01:30N 38°29' W 008°49'0 0.0
2018-Apr-03 01:00N 38°29' W 008°49'0 0.0
2018-Apr-03 00:30N 38°29' W 008°49'0 0.0
2018-Apr-02 23:59N 38°29' W 008°49'0 0.0
2018-Apr-02 23:30N 38°29' W 008°49'0 0.0
2018-Apr-02 23:00N 38°29' W 008°49'0 0.0
2018-Apr-02 22:30N 38°29' W 008°49'0 0.0
2018-Apr-02 22:00N 38°29' W 008°49'0 0.0
2018-Apr-02 21:30N 38°29' W 008°49'0 0.0
2018-Apr-02 21:00N 38°29' W 008°49'0 0.0
2018-Apr-02 20:31N 38°29' W 008°49'0 0.0
2018-Apr-02 20:00N 38°29' W 008°49'0 0.0
2018-Apr-02 19:30N 38°29' W 008°49'0 0.0
2018-Apr-02 19:01N 38°29' W 008°49'0 0.0
2018-Apr-02 18:30N 38°29' W 008°49'0 0.0
2018-Apr-02 17:58N 38°29' W 008°49'0 0.0
2018-Apr-02 17:31N 38°29' W 008°49'0 0.0
2018-Apr-02 17:00N 38°29' W 008°49'0 0.0
2018-Apr-02 16:30N 38°29' W 008°49'0 0.0
2018-Apr-02 16:00N 38°29' W 008°49'0 0.0
2018-Apr-02 15:30N 38°29' W 008°49'0 0.0
2018-Apr-02 15:00N 38°29' W 008°49'0 0.0
2018-Apr-02 14:30N 38°29' W 008°49'0 0.0
2018-Apr-02 14:00N 38°29' W 008°49'0 0.0
2018-Apr-02 13:28N 38°29' W 008°49'0 0.0
2018-Apr-02 13:00N 38°29' W 008°49'0 0.0
2018-Apr-02 12:30N 38°29' W 008°49'0 0.0
2018-Apr-02 12:01N 38°29' W 008°49'0 0.0
2018-Apr-02 11:30N 38°29' W 008°49'0 0.0
2018-Apr-02 11:00N 38°29' W 008°49'0 0.0
2018-Apr-02 10:30N 38°29' W 008°49'  

Dump ship's entire track history